Tiempo atmosférico en la estación meteorológica de Benamejí, Córdoba (465 m.)



Fecha
DESCASC
Temp. máxima en grados centígrados (hora)
DESCASC
Temp. mínima en grados centígrados (hora)
DESCASC
Temp. media en grados centígrados
DESCASC
Racha de viento máxima en m/sg (hora)
DESCASC
Velocidad máxima media en intervalos de 10 minutos(hora)
DESCASC
Precipitaciones diarias en mm
DESCASC
Precipitaciones de 00:00 a 06:00 en mm
DESCASC
Precipitaciones de 06:00 a 12:00 en mm
DESCASC
Precipitaciones de 12:00 a 18:00 en mm
DESCASC
Precipitaciones de 18:00 a 24:00 en mm
DESCASC
24-01-2021 14.4 (15:40) 10 (23:40) 12.2 11.67 (04:50) 7.22 (05:00) 5.6 1.2 4.4 0 0
23-01-2021 12.6 (15:40) 8 (08:30) 10.3 13.06 (19:30) 8.61 (19:30) 0.6 0 0 0.2 0.4
22-01-2021 14.2 (05:00) 9 (23:59) 11.6 17.5 (13:50) 11.11 (13:40) 0 0 0 0 0
21-01-2021 13 (15:30) 8.5 (00:00) 10.8 11.39 (15:40) 6.94 (15:50) 1 0 0.2 0.8 0
20-01-2021 11.9 (14:40) 4.2 (00:00) 8 13.89 (13:50) 9.72 (13:50) 7.2 0 2.2 4.8 0.2
19-01-2021 15.9 (15:10) 2.6 (00:00) 9.2 6.67 (15:30) 4.17 (15:20) 0 0 0 0 0
18-01-2021 19.2 (16:00) 2.9 (00:00) 11.1 5.28 (03:50) 3.89 (03:10) 0 0 0 0 0
17-01-2021 16.7 (16:20) 2.3 (00:00) 9.5 4.72 (10:00) 3.33 (04:10) 0 0 0 0 0
16-01-2021 16 (17:00) 0 (00:00) 8 6.94 (21:00) 4.72 (21:00) 0 0 0 0 0
15-01-2021 13.2 (17:10) 0.2 (00:00) 6.7 6.94 (19:30) 4.44 (17:40) 0 0 0 0 0
14-01-2021 11.4 (15:40) -0.2 (08:30) 5.6 5.83 (17:30) 3.33 (17:20) 0 0 0 0 0
13-01-2021 12.1 (15:50) 0.4 (00:00) 6.3 4.17 (11:00) 3.06 (11:10) 0 0 0 0 0
12-01-2021 11 (15:20) -0.3 (00:00) 5.3 4.17 (15:40) 3.06 (06:40) 0 0 0 0 0
11-01-2021 9.5 (16:20) -0.6 (-00:0) 4.4 5.28 (17:10) 3.06 (16:30) 0 0 0 0 0
10-01-2021 6.8 (16:10) 0.8 (06:30) 3.8 5.83 (16:30) 3.61 (17:10) 0.8 0.8 0 0 0
09-01-2021 10.1 (00:10) 2.9 (00:00) 6.5 15.83 (09:30) 10.83 (09:30) 2.2 0.8 0.2 0 1.2
08-01-2021 11.9 (16:00) 5.6 (00:00) 8.7 12.78 (19:20) 8.33 (23:50) 11.4 4.2 3 0.2 4
07-01-2021 6.4 (17:00) 4.4 (00:00) 5.4 6.67 (01:20) 4.17 (01:20) 21.6 5.4 5 1.4 9.8
06-01-2021 11.4 (14:40) 4.5 (00:00) 7.9 7.22 (14:20) 5 (14:10) 3.6 0 0 0 3.6
05-01-2021 10.9 (14:10) 2.5 (00:00) 6.7 4.17 (06:10) 2.5 (06:10) 0 0 0 0 0
04-01-2021 8.7 (17:20) -1.5 (-00:0) 3.6 5.56 (14:40) 3.06 (05:50) 0 0 0 0 0
03-01-2021 8.6 (17:00) -1.5 (-00:0) 3.6 5.28 (15:10) 3.06 (16:30) 0 0 0 0 0
02-01-2021 7 (15:30) 0.7 (00:00) 3.8 6.67 (16:40) 4.44 (16:40) 0 0 0 0 0
01-01-2021 8.3 (15:40) 4.8 (00:00) 6.6 10 (06:00) 6.67 (01:50) 0.8 0.8 0 0 0
31-12-2020 9.2 (16:00) -0.7 (-00:0) 4.2 5.28 (23:59) 4.17 (23:59) 0 0 0 0 0
30-12-2020 8.4 (15:40) 1.2 (00:00) 4.8 4.72 (16:30) 2.78 (16:30) 0.2 0 0.2 0 0
29-12-2020 9.4 (16:10) 2.5 (00:00) 5.9 9.44 (16:00) 6.11 (16:10) 0 0 0 0 0
28-12-2020 10 (10:40) 3.8 (00:00) 6.9 14.17 (10:50) 8.89 (10:50) 4 0 0 4 0
27-12-2020 12.3 (16:50) 0 (00:00) 6.2 4.72 (13:40) 3.61 (04:50) 0 0 0 0 0
26-12-2020 11.5 (16:10) 1.9 (00:00) 6.7 5.28 (11:50) 3.61 (11:10) 0 0 0 0 0

Gráficas

Temp. máximas Temp. mínimas Temp. medias Precipitaciones Rachas de viento máximas Velocidades máximas media en intervalos de 10 minutos

Datos horarios

Fecha y hora oficial Temperatura (ºC) Velocidad del viento (km/h) Dirección del viento Racha (km/h) Dirección de racha Precipitación (mm) Presión (hPa) Tendencia (hPa) Humedad (%)
2021-01-24 23:00:00 10.2 11 Sudoeste 16 Oeste 0 -- -- 92
2021-01-24 22:00:00 11 11 Oeste 18 Sudoeste 0 -- -- 90
2021-01-24 21:00:00 11.6 11 Oeste 22 Oeste 0 -- -- 86
2021-01-24 20:00:00 11.7 5 Oeste 12 Oeste 0 -- -- 83
2021-01-24 19:00:00 12 9 Oeste 17 Oeste 0 -- -- 78
2021-01-24 18:00:00 12.7 9 Noroeste 27 Oeste 0 -- -- 73
2021-01-24 17:00:00 13.7 15 Oeste 28 Oeste 0 -- -- 72
2021-01-24 16:00:00 14.2 18 Oeste 29 Oeste 0 -- -- 70
2021-01-24 15:00:00 13.6 13 Noroeste 24 Oeste 0 -- -- 78
2021-01-24 14:00:00 13 10 Oeste 25 Noroeste 0 -- -- 86
2021-01-24 13:00:00 12.5 7 Noroeste 20 Noroeste 0 -- -- 93
2021-01-24 12:00:00 12.5 19 Oeste 37 Noroeste 0 -- -- 95
2021-01-24 11:00:00 12.5 21 Noroeste 38 Noroeste 1 -- -- 99
2021-01-24 10:00:00 12.6 19 Oeste 32 Oeste 1.4 -- -- 99
2021-01-24 09:00:00 12.1 21 Oeste 39 Oeste 0.4 -- -- 99
2021-01-24 08:00:00 12 19 Oeste 35 Oeste 1.6 -- -- 98
2021-01-24 07:00:00 12 21 Oeste 39 Oeste 0 -- -- 97
2021-01-24 06:00:00 12 24 Sudoeste 38 Oeste 0.2 -- -- 98
2021-01-24 05:00:00 12 26 Sudoeste 42 Sudoeste 0.2 -- -- 98
2021-01-24 04:00:00 11.8 21 Oeste 38 Sudoeste 0.4 -- -- 98
2021-01-24 03:00:00 11.8 19 Sudoeste 38 Oeste 0 -- -- 96
2021-01-24 02:00:00 11.8 22 Oeste 35 Sudoeste 0.2 -- -- 96
2021-01-24 01:00:00 11.7 21 Sudoeste 35 Oeste 0.2 -- -- 97
2021-01-24 00:00:00 11.5 19 Sudoeste 34 Sudoeste 0.2 -- -- 97
2021-01-23 23:00:00 11.1 16 Sudoeste 36 Sudoeste 0.2 -- -- 95
2021-01-23 22:00:00 11.1 23 Sudoeste 35 Sudoeste 0 -- -- 91
2021-01-23 21:00:00 10.6 18 Sudoeste 29 Sudoeste 0 -- -- 92
2021-01-23 20:00:00 10.9 24 Sudoeste 47 Sudoeste 0 -- -- 88
2021-01-23 19:00:00 11.3 24 Sudoeste 39 Sudoeste 0 -- -- 80
2021-01-23 18:00:00 11.6 20 Sudoeste 36 Sudoeste 0 -- -- 84
2021-01-23 17:00:00 12.3 16 Sudoeste 36 Oeste 0 -- -- 81
2021-01-23 16:00:00 12.4 16 Oeste 32 Sudoeste 0 -- -- 80
2021-01-23 15:00:00 11.2 14 Sudoeste 29 Sudoeste 0.2 -- -- 87
2021-01-23 14:00:00 12.1 11 Noroeste 31 Sudoeste 0 -- -- 78
2021-01-23 13:00:00 11.6 5 Oeste 12 Oeste 0 -- -- 79
2021-01-23 12:00:00 10.6 5 Oeste 10 Sudoeste 0 -- -- 85
2021-01-23 11:00:00 9.5 3 Sudoeste 7 Sur 0 -- -- 87
2021-01-23 10:00:00 8.7 0 Calma 6 Este 0 -- -- 90
2021-01-23 09:00:00 8.1 2 Sudeste 12 Oeste 0 -- -- 94
2021-01-23 08:00:00 8.1 7 Noroeste 27 Noroeste 0 -- -- 94
2021-01-23 07:00:00 8.5 15 Noroeste 33 Noroeste 0 -- -- 92
2021-01-23 06:00:00 8.7 10 Oeste 19 Oeste 0 -- -- 93
2021-01-23 05:00:00 8.7 5 Oeste 21 Oeste 0 -- -- 91
2021-01-23 04:00:00 8.8 3 Oeste 10 Sudoeste 0 -- -- 90
2021-01-23 03:00:00 8.7 5 Sudoeste 16 Oeste 0 -- -- 89
2021-01-23 02:00:00 9.2 13 Oeste 31 Oeste 0 -- -- 87
2021-01-23 01:00:00 9.3 14 Oeste 22 Oeste 0 -- -- 87
2021-01-23 00:00:00 9 0 Calma 10 Oeste 0 -- -- 84
2021-01-22 23:00:00 9.6 6 Oeste 16 Sudoeste 0 -- -- 82
2021-01-22 22:00:00 9.9 10 Oeste 20 Oeste 0 -- -- 85
2021-01-22 21:00:00 10.2 13 Oeste 22 Oeste 0 -- -- 82
2021-01-22 20:00:00 11 17 Oeste 39 Oeste 0 -- -- 72
2021-01-22 19:00:00 11.2 19 Oeste 37 Oeste 0 -- -- 74
2021-01-22 18:00:00 11.9 27 Oeste 49 Oeste 0 -- -- 72
2021-01-22 17:00:00 12.4 32 Oeste 49 Sudoeste 0 -- -- 75
2021-01-22 16:00:00 12.2 27 Oeste 58 Sudoeste 0 -- -- 74
2021-01-22 15:00:00 13.7 37 Oeste 63 Oeste 0 -- -- 61
2021-01-22 14:00:00 13.1 34 Oeste 63 Sudoeste 0 -- -- 62
2021-01-22 13:00:00 13.7 37 Oeste 55 Oeste 0 -- -- 60
2021-01-22 12:00:00 13.1 27 Oeste 55 Oeste 0 -- -- 62
2021-01-22 11:00:00 12.4 27 Oeste 46 Sudoeste 0 -- -- 71
2021-01-22 10:00:00 12.2 30 Oeste 59 Oeste 0 -- -- 78
2021-01-22 09:00:00 12.2 31 Oeste 54 Oeste 0 -- -- 87
2021-01-22 08:00:00 12.5 24 Oeste 43 Sudoeste 0 -- -- 89
2021-01-22 07:00:00 12.4 25 Oeste 49 Oeste 0 -- -- 93
2021-01-22 06:00:00 13 28 Sudoeste 56 Oeste 0 -- -- 87
2021-01-22 05:00:00 14.2 29 Sudoeste 53 Sudoeste 0 -- -- 85
2021-01-22 04:00:00 12.5 23 Sur 34 Sur 0 -- -- 80
2021-01-22 03:00:00 11.9 21 Sur 33 Sur 0 -- -- 79
2021-01-22 02:00:00 11.5 25 Sur 37 Sur 0 -- -- 79
2021-01-22 01:00:00 11.4 21 Sur 27 Sur 0 -- -- 78
2021-01-22 00:00:00 10.3 15 Sur 20 Sur 0 -- -- 82
2021-01-21 23:00:00 10.6 14 Sur 24 Sur 0 -- -- 82
2021-01-21 22:00:00 10.5 9 Sudeste 13 Sur 0 -- -- 85
2021-01-21 21:00:00 11.3 7 Sudoeste 21 Sudoeste 0 -- -- 82
2021-01-21 20:00:00 11.6 14 Sudoeste 26 Sudoeste 0 -- -- 80
2021-01-21 19:00:00 12 19 Sudoeste 28 Sudoeste 0 -- -- 83
2021-01-21 18:00:00 12.1 19 Sudoeste 35 Oeste 0 -- -- 86
2021-01-21 17:00:00 12 18 Oeste 35 Oeste 0 -- -- 91
2021-01-21 16:00:00 12.1 21 Oeste 41 Sudoeste 0.2 -- -- 90
2021-01-21 15:00:00 12.9 15 Oeste 31 Sudoeste 0 -- -- 87
2021-01-21 14:00:00 11.6 12 Sudoeste 21 Oeste 0.4 -- -- 97
2021-01-21 13:00:00 11.4 10 Sudoeste 28 Sudoeste 0.2 -- -- 91
2021-01-21 12:00:00 11.4 16 Sudoeste 23 Sudoeste 0 -- -- 88
2021-01-21 11:00:00 10.4 12 Sur 17 Sur 0 -- -- 94
2021-01-21 10:00:00 9.8 10 Sudoeste 21 Sur 0.2 -- -- 98
2021-01-21 09:00:00 8.6 12 Sur 18 Sur 0 -- -- 96
2021-01-21 08:00:00 9.5 9 Sudoeste 21 Sudoeste 0 -- -- 94
2021-01-21 07:00:00 9.5 13 Sudoeste 23 Sudoeste 0 -- -- 94
2021-01-21 06:00:00 9.1 10 Sudoeste 18 Sur 0 -- -- 95
2021-01-21 05:00:00 9.3 14 Sur 20 Sur 0 -- -- 94
2021-01-21 04:00:00 9.7 10 Sudoeste 22 Sudoeste 0 -- -- 92
2021-01-21 03:00:00 9.4 13 Sudoeste 24 Sudoeste 0 -- -- 92
2021-01-21 02:00:00 9.7 14 Sudoeste 29 Sudoeste 0 -- -- 91
2021-01-21 01:00:00 9.6 20 Sudoeste 33 Sudoeste 0 -- -- 90
2021-01-21 00:00:00 9.7 14 Sudoeste 30 Sudoeste 0 -- -- 89
2021-01-20 23:00:00 10.1 17 Sudoeste 32 Sudoeste 0 -- -- 89
2021-01-20 22:00:00 9.4 17 Sur 33 Sur 0 -- -- 90
2021-01-20 21:00:00 9.8 26 Sudoeste 38 Sudoeste 0 -- -- 91
2021-01-20 20:00:00 9.9 26 Sur 33 Sur 0 -- -- 95
2021-01-20 19:00:00 10.1 17 Sur 32 Sudoeste 0.2 -- -- 96
2021-01-20 18:00:00 10.1 17 Sur 26 Sur 0.6 -- -- 97
2021-01-20 17:00:00 10 13 Sudeste 30 Sur 0.8 -- -- 95
2021-01-20 16:00:00 9.8 16 Sur 47 Sur 1.4 -- -- 95
2021-01-20 15:00:00 11.7 28 Sur 43 Sur 0 -- -- 81
2021-01-20 14:00:00 10.1 33 Sur 50 Sur 0.2 -- -- 94
2021-01-20 13:00:00 9.1 21 Sur 49 Sur 1.8 -- -- 96
2021-01-20 12:00:00 9.2 22 Sur 34 Sudeste 0.2 -- -- 93
2021-01-20 11:00:00 8.7 21 Sur 31 Sur 2 -- -- 93
2021-01-20 10:00:00 9.5 16 Sur 27 Sur 0 -- -- 82
2021-01-20 09:00:00 8.9 15 Sudeste 25 Sur 0 -- -- 79
2021-01-20 08:00:00 8.5 19 Sur 26 Sur 0 -- -- 79
2021-01-20 07:00:00 7.4 15 Este 21 Sudeste 0 -- -- 79
2021-01-20 06:00:00 7.7 10 Sudeste 23 Sudeste 0 -- -- 79
2021-01-20 05:00:00 5.8 6 Sudeste 16 Sur 0 -- -- 84
2021-01-20 04:00:00 4.2 14 Este 17 Este 0 -- -- 90
2021-01-20 03:00:00 5.1 6 Este 13 Este 0 -- -- 90
2021-01-20 02:00:00 5.7 6 Sudeste 14 Sur 0 -- -- 86
2021-01-20 01:00:00 6.5 10 Sur 14 Sur 0 -- -- 82
2021-01-20 00:00:00 5.9 2 Sudoeste 7 Este 0 -- -- 80
2021-01-19 23:00:00 7.2 6 Este 12 Este 0 -- -- 76
2021-01-19 22:00:00 8 12 Este 14 Este 0 -- -- 74
2021-01-19 21:00:00 9 3 Sudeste 5 Sudeste 0 -- -- 73
2021-01-19 20:00:00 9 2 Sudoeste 7 Oeste 0 -- -- 71
2021-01-19 19:00:00 10.1 5 Oeste 12 Noroeste 0 -- -- 65
2021-01-19 18:00:00 12.5 6 Noroeste 13 Noroeste 0 -- -- 57
2021-01-19 17:00:00 14 8 Noroeste 14 Noroeste 0 -- -- 56
2021-01-19 16:00:00 14.7 10 Noroeste 24 Oeste 0 -- -- 51
2021-01-19 15:00:00 15.7 9 Sudoeste 20 Sudoeste 0 -- -- 41
2021-01-19 14:00:00 14.1 7 Noroeste 13 Noroeste 0 -- -- 51
2021-01-19 13:00:00 12.5 3 Oeste 7 Oeste 0 -- -- 52
2021-01-19 12:00:00 9.5 0 Calma 10 Nordeste 0 -- -- 60
2021-01-19 11:00:00 6.7 5 Nordeste 12 Nordeste 0 -- -- 70
2021-01-19 10:00:00 4.4 6 Nordeste 9 Nordeste 0 -- -- 76
2021-01-19 09:00:00 2.6 8 Nordeste 10 Nordeste 0 -- -- 84
2021-01-19 08:00:00 3 6 Este 12 Nordeste 0 -- -- 82
2021-01-19 07:00:00 3.4 8 Nordeste 13 Nordeste 0 -- -- 81
2021-01-19 06:00:00 3 9 Este 18 Este 0 -- -- 84
2021-01-19 05:00:00 3.9 11 Este 17 Este 0 -- -- 81
2021-01-19 04:00:00 4.1 5 Este 10 Este 0 -- -- 79
2021-01-19 03:00:00 4.7 3 Nordeste 8 Nordeste 0 -- -- 80
2021-01-19 02:00:00 4.7 4 Nordeste 9 Nordeste 0 -- -- 79
2021-01-19 01:00:00 5.9 8 Nordeste 10 Este 0 -- -- 76
2021-01-19 00:00:00 7.3 6 Este 8 Este 0 -- -- 68
2021-01-18 23:00:00 8.6 0 Calma 5 Este 0 -- -- 64
2021-01-18 22:00:00 9.9 3 Este 6 Este 0 -- -- 58
2021-01-18 21:00:00 10.2 5 Este 6 Nordeste 0 -- -- 58
2021-01-18 20:00:00 10.2 4 Norte 10 Noroeste 0 -- -- 59
2021-01-18 19:00:00 11.2 5 Noroeste 9 Noroeste 0 -- -- 55
2021-01-18 18:00:00 14.8 5 Oeste 17 Oeste 0 -- -- 46
2021-01-18 17:00:00 17.6 9 Noroeste 19 Sudoeste 0 -- -- 39
2021-01-18 16:00:00 19.2 8 Sudoeste 17 Sudoeste 0 -- -- 31
2021-01-18 15:00:00 18.7 11 Sudoeste 17 Sur 0 -- -- 31
2021-01-18 14:00:00 15.7 4 Nordeste 9 Nordeste 0 -- -- 35
2021-01-18 13:00:00 14.1 3 Nordeste 6 Nordeste 0 -- -- 32
2021-01-18 12:00:00 12 0 Calma 8 Nordeste 0 -- -- 40
2021-01-18 11:00:00 7.3 5 Nordeste 10 Nordeste 0 -- -- 56
2021-01-18 10:00:00 5.3 6 Nordeste 10 Nordeste 0 -- -- 62
2021-01-18 09:00:00 3.4 8 Nordeste 15 Nordeste 0 -- -- 70
2021-01-18 08:00:00 2.9 8 Nordeste 16 Nordeste 0 -- -- 75
2021-01-18 07:00:00 3.9 10 Nordeste 14 Nordeste 0 -- -- 69
2021-01-18 06:00:00 4.5 8 Este 12 Nordeste 0 -- -- 67
2021-01-18 05:00:00 4.2 8 Este 12 Nordeste 0 -- -- 70
2021-01-18 04:00:00 4.7 12 Nordeste 19 Nordeste 0 -- -- 70
2021-01-18 03:00:00 4.7 11 Nordeste 14 Nordeste 0 -- -- 72
2021-01-18 02:00:00 6 8 Este 10 Este 0 -- -- 66
2021-01-18 01:00:00 6.7 8 Sur 9 Sur 0 -- -- 61
2021-01-18 00:00:00 7.4 3 Sudeste 11 Nordeste 0 -- -- 59
2021-01-17 23:00:00 8.3 8 Este 12 Nordeste 0 -- -- 57
2021-01-17 22:00:00 9 6 Este 11 Nordeste 0 -- -- 56
2021-01-17 21:00:00 10.9 8 Este 10 Este 0 -- -- 47
2021-01-17 20:00:00 12.3 3 Este 5 Este 0 -- -- 40
2021-01-17 19:00:00 12.7 3 Sudoeste 5 Sudoeste 0 -- -- 38
2021-01-17 18:00:00 15.1 3 Oeste 9 Noroeste 0 -- -- 36
2021-01-17 17:00:00 16.1 6 Noroeste 10 Oeste 0 -- -- 31
2021-01-17 16:00:00 16.2 5 Noroeste 11 Noroeste 0 -- -- 36
2021-01-17 15:00:00 16 5 Noroeste 9 Noroeste 0 -- -- 36
2021-01-17 14:00:00 15.2 3 Oeste 8 Oeste 0 -- -- 32
2021-01-17 13:00:00 12.8 3 Oeste 9 Nordeste 0 -- -- 41
2021-01-17 12:00:00 9 7 Nordeste 13 Nordeste 0 -- -- 55
2021-01-17 11:00:00 6.4 10 Nordeste 16 Este 0 -- -- 63
2021-01-17 10:00:00 3.8 12 Nordeste 17 Nordeste 0 -- -- 73
2021-01-17 09:00:00 2.3 0 Calma 15 Este 0 -- -- 81
2021-01-17 08:00:00 3 5 Este 13 Nordeste 0 -- -- 77
2021-01-17 07:00:00 2.9 10 Este 15 Nordeste 0 -- -- 79
2021-01-17 06:00:00 2.6 7 Este 12 Nordeste 0 -- -- 82
2021-01-17 05:00:00 2.9 4 Este 14 Este 0 -- -- 82
2021-01-17 04:00:00 3.5 10 Nordeste 13 Este 0 -- -- 84
2021-01-17 03:00:00 4.3 5 Este 10 Este 0 -- -- 81
2021-01-17 02:00:00 4 0 Calma 8 Nordeste 0 -- -- 79
2021-01-17 01:00:00 4.6 8 Nordeste 13 Nordeste 0 -- -- 81
2021-01-17 00:00:00 6.2 7 Sudeste 14 Sur 0 -- -- 92
2021-01-16 23:00:00 6.7 8 Sudeste 18 Sur 0 -- -- 90
2021-01-16 22:00:00 6.1 10 Sur 22 Sudoeste 0 -- -- 87
2021-01-16 21:00:00 7.5 17 Sur 25 Sur 0 -- -- 74
2021-01-16 20:00:00 9.3 6 Sur 13 Noroeste 0 -- -- 45
2021-01-16 19:00:00 10.9 8 Oeste 12 Sudoeste 0 -- -- 40
2021-01-16 18:00:00 14.9 8 Sudoeste 10 Sudoeste 0 -- -- 38
2021-01-16 17:00:00 16 6 Oeste 12 Oeste 0 -- -- 36
2021-01-16 16:00:00 15.4 6 Oeste 12 Sudoeste 0 -- -- 40
2021-01-16 15:00:00 14.3 4 Noroeste 13 Noroeste 0 -- -- 44
2021-01-16 14:00:00 12.8 8 Noroeste 14 Noroeste 0 -- -- 42
2021-01-16 13:00:00 10.5 4 Noroeste 10 Noroeste 0 -- -- 52
2021-01-16 12:00:00 8.9 4 Oeste 6 Oeste 0 -- -- 63
2021-01-16 11:00:00 5.9 2 Oeste 4 Sudoeste 0 -- -- 74
2021-01-16 10:00:00 2.4 0 Calma 8 Nordeste 0 -- -- 85
2021-01-16 09:00:00 0.5 5 Este 12 Este 0 -- -- 91
2021-01-16 08:00:00 1 3 Sudeste 9 Este 0 -- -- 90
2021-01-16 07:00:00 1.3 0 Calma 6 Este 0 -- -- 91
2021-01-16 06:00:00 2.2 3 Este 10 Nordeste 0 -- -- 84
2021-01-16 05:00:00 1.3 10 Nordeste 12 Nordeste 0 -- -- 89
2021-01-16 04:00:00 2.6 5 Este 10 Nordeste 0 -- -- 84
2021-01-16 03:00:00 2.7 6 Sur 10 Sur 0 -- -- 86
2021-01-16 02:00:00 3.4 8 Sur 12 Sur 0 -- -- 83
2021-01-16 01:00:00 4.6 0 Calma 6 Oeste 0 -- -- 79
2021-01-16 00:00:00 5.4 4 Noroeste 8 Oeste 0 -- -- 77
2021-01-15 23:00:00 6.5 3 Noroeste 5 Noroeste 0 -- -- 71
2021-01-15 22:00:00 7.4 3 Noroeste 10 Noroeste 0 -- -- 67
2021-01-15 21:00:00 8 8 Noroeste 10 Noroeste 0 -- -- 64
2021-01-15 20:00:00 9.4 4 Nordeste 25 Norte 0 -- -- 59
2021-01-15 19:00:00 10.6 14 Norte 22 Noroeste 0 -- -- 54
2021-01-15 18:00:00 12.4 15 Norte 24 Noroeste 0 -- -- 46
2021-01-15 17:00:00 13.1 10 Noroeste 21 Oeste 0 -- -- 52
2021-01-15 16:00:00 12.5 9 Noroeste 14 Noroeste 0 -- -- 57
2021-01-15 15:00:00 11.6 10 Noroeste 16 Noroeste 0 -- -- 58
2021-01-15 14:00:00 10.9 6 Oeste 11 Oeste 0 -- -- 60
2021-01-15 13:00:00 9.3 4 Noroeste 8 Oeste 0 -- -- 63
2021-01-15 12:00:00 7.7 3 Oeste 5 Noroeste 0 -- -- 70
2021-01-15 11:00:00 4.9 3 Nordeste 5 Nordeste 0 -- -- 80
2021-01-15 10:00:00 1.6 6 Este 13 Nordeste 0 -- -- 88
2021-01-15 09:00:00 0.2 10 Nordeste 14 Nordeste 0 -- -- 94
2021-01-15 08:00:00 0.8 5 Sudeste 8 Sur 0 -- -- 93
2021-01-15 07:00:00 0.9 2 Sudeste 6 Este 0 -- -- 91
2021-01-15 06:00:00 0.8 6 Nordeste 8 Nordeste 0 -- -- 94
2021-01-15 05:00:00 1.8 5 Este 13 Este 0 -- -- 92
2021-01-15 04:00:00 1.8 2 Nordeste 12 Nordeste 0 -- -- 87
2021-01-15 03:00:00 3.1 3 Sudeste 8 Sur 0 -- -- 82
2021-01-15 02:00:00 3.8 4 Sur 7 Sur 0 -- -- 79
2021-01-15 01:00:00 4.1 6 Este 9 Este 0 -- -- 79
2021-01-15 00:00:00 3.9 3 Nordeste 5 Nordeste 0 -- -- 78
2021-01-14 23:00:00 5.6 0 Calma 4 Nordeste 0 -- -- 70
2021-01-14 22:00:00 6.5 3 Este 6 Nordeste 0 -- -- 66
2021-01-14 21:00:00 6.6 4 Nordeste 6 Nordeste 0 -- -- 67
2021-01-14 20:00:00 7.2 2 Nordeste 5 Noroeste 0 -- -- 64
2021-01-14 19:00:00 8 3 Noroeste 9 Oeste 0 -- -- 58
2021-01-14 18:00:00 9.6 6 Noroeste 21 Oeste 0 -- -- 51
2021-01-14 17:00:00 10.8 8 Noroeste 17 Noroeste 0 -- -- 50
2021-01-14 16:00:00 11.1 12 Noroeste 19 Noroeste 0 -- -- 45
2021-01-14 15:00:00 11.1 9 Noroeste 16 Noroeste 0 -- -- 51
2021-01-14 14:00:00 10.8 8 Noroeste 16 Noroeste 0 -- -- 51
2021-01-14 13:00:00 9.2 8 Noroeste 13 Noroeste 0 -- -- 60
2021-01-14 12:00:00 6.9 3 Nordeste 8 Este 0 -- -- 69
2021-01-14 11:00:00 4.1 3 Nordeste 9 Nordeste 0 -- -- 79
2021-01-14 10:00:00 1.4 6 Nordeste 11 Nordeste 0 -- -- 88
2021-01-14 09:00:00 0.2 4 Este 11 Nordeste 0 -- -- 93
2021-01-14 08:00:00 0.1 9 Nordeste 11 Nordeste 0 -- -- 92
2021-01-14 07:00:00 0.4 9 Nordeste 10 Nordeste 0 -- -- 94
2021-01-14 06:00:00 0.9 5 Este 8 Este 0 -- -- 90
2021-01-14 05:00:00 1.4 3 Este 6 Este 0 -- -- 86
2021-01-14 04:00:00 1.6 3 Este 8 Este 0 -- -- 85
2021-01-14 03:00:00 3 3 Este 8 Nordeste 0 -- -- 77
2021-01-14 02:00:00 3.8 5 Este 9 Este 0 -- -- 75
2021-01-14 01:00:00 4.3 3 Este 8 Este 0 -- -- 73
2021-01-14 00:00:00 4.9 7 Este 9 Este 0 -- -- 72
2021-01-13 23:00:00 4.5 0 Calma 4 Nordeste 0 -- -- 74
2021-01-13 22:00:00 6 0 Calma 4 Este 0 -- -- 65
2021-01-13 21:00:00 7 2 Este 4 Nordeste 0 -- -- 62
2021-01-13 20:00:00 6.8 0 Calma 6 Oeste 0 -- -- 63
2021-01-13 19:00:00 7.8 5 Sudoeste 11 Noroeste 0 -- -- 61
2021-01-13 18:00:00 10.4 5 Oeste 11 Noroeste 0 -- -- 56
2021-01-13 17:00:00 11.3 6 Noroeste 12 Noroeste 0 -- -- 50
2021-01-13 16:00:00 11.9 7 Oeste 14 Oeste 0 -- -- 48
2021-01-13 15:00:00 11.3 6 Oeste 12 Oeste 0 -- -- 50
2021-01-13 14:00:00 10.4 5 Oeste 9 Noroeste 0 -- -- 52
2021-01-13 13:00:00 8.6 4 Norte 8 Nordeste 0 -- -- 54
2021-01-13 12:00:00 5.9 4 Nordeste 14 Nordeste 0 -- -- 70
2021-01-13 11:00:00 3.1 9 Nordeste 15 Nordeste 0 -- -- 80
2021-01-13 10:00:00 1.6 8 Nordeste 12 Nordeste 0 -- -- 86
2021-01-13 09:00:00 0.6 5 Este 13 Nordeste 0 -- -- 91
2021-01-13 08:00:00 0.5 10 Nordeste 13 Nordeste 0 -- -- 93
2021-01-13 07:00:00 0.9 4 Este 7 Este 0 -- -- 91
2021-01-13 06:00:00 1.1 6 Este 10 Nordeste 0 -- -- 92
2021-01-13 05:00:00 0.5 7 Nordeste 12 Sur 0 -- -- 94
2021-01-13 04:00:00 1.6 3 Sur 9 Este 0 -- -- 88
2021-01-13 03:00:00 1.7 8 Este 12 Nordeste 0 -- -- 91
2021-01-13 02:00:00 2.1 2 Nordeste 11 Nordeste 0 -- -- 89
2021-01-13 01:00:00 2.2 8 Nordeste 12 Nordeste 0 -- -- 90
2021-01-13 00:00:00 3.3 8 Nordeste 10 Nordeste 0 -- -- 85
2021-01-12 23:00:00 3.6 5 Sur 7 Sur 0 -- -- 80
2021-01-12 22:00:00 4.5 0 Calma 3 Sudoeste 0 -- -- 75
2021-01-12 21:00:00 5 0 Calma 4 Noroeste 0 -- -- 72
2021-01-12 20:00:00 5.8 2 Noroeste 6 Noroeste 0 -- -- 71
2021-01-12 19:00:00 6.7 4 Noroeste 11 Noroeste 0 -- -- 70
2021-01-12 18:00:00 9.2 8 Noroeste 13 Noroeste 0 -- -- 62
2021-01-12 17:00:00 10.4 8 Noroeste 13 Oeste 0 -- -- 56
2021-01-12 16:00:00 10.7 8 Noroeste 15 Noroeste 0 -- -- 55
2021-01-12 15:00:00 10.6 5 Noroeste 11 Noroeste 0 -- -- 55
2021-01-12 14:00:00 9.5 4 Nordeste 12 Nordeste 0 -- -- 59
2021-01-12 13:00:00 8.1 4 Nordeste 8 Nordeste 0 -- -- 65
2021-01-12 12:00:00 6.1 3 Nordeste 8 Este 0 -- -- 76
2021-01-12 11:00:00 3.9 3 Nordeste 8 Nordeste 0 -- -- 84
2021-01-12 10:00:00 1.5 4 Nordeste 12 Este 0 -- -- 91
2021-01-12 09:00:00 -0.1 10 Nordeste 13 Este 0 -- -- 97
2021-01-12 08:00:00 0.1 4 Este 11 Nordeste 0 -- -- 95
2021-01-12 07:00:00 0.3 8 Este 13 Nordeste 0 -- -- 95
2021-01-12 06:00:00 0.9 5 Este 6 Nordeste 0 -- -- 92
2021-01-12 05:00:00 0.8 2 Sudeste 10 Nordeste 0 -- -- 93
2021-01-12 04:00:00 1.6 7 Este 10 Sudeste 0 -- -- 90
2021-01-12 03:00:00 1.8 2 Sudeste 10 Sur 0 -- -- 91
2021-01-12 02:00:00 2.6 5 Sudeste 7 Nordeste 0 -- -- 89
2021-01-12 01:00:00 2.9 5 Este 7 Este 0 -- -- 85
2021-01-12 00:00:00 2.8 3 Sudeste 6 Sur 0 -- -- 87
2021-01-11 23:00:00 3.4 5 Sur 9 Sur 0 -- -- 83
2021-01-11 22:00:00 4.2 0 Calma -- -- 0 -- -- 77
2021-01-11 21:00:00 4.8 3 Norte 13 Noroeste 0 -- -- 75
2021-01-11 20:00:00 5.2 8 Noroeste 11 Noroeste 0 -- -- 73
2021-01-11 19:00:00 6 5 Noroeste 15 Noroeste 0 -- -- 72
2021-01-11 18:00:00 8.4 10 Noroeste 19 Oeste 0 -- -- 66
2021-01-11 17:00:00 9.4 10 Noroeste 17 Oeste 0 -- -- 66
2021-01-11 16:00:00 9.4 8 Oeste 15 Noroeste 0 -- -- 61
2021-01-11 15:00:00 9.3 7 Noroeste 13 Noroeste 0 -- -- 69
2021-01-11 14:00:00 8.5 5 Oeste 10 Noroeste 0 -- -- 68
2021-01-11 13:00:00 6.9 3 Norte 8 Oeste 0 -- -- 74
2021-01-11 12:00:00 5.3 3 Noroeste 7 Noroeste 0 -- -- 83
2021-01-11 11:00:00 3.8 0 Calma 3 Sudoeste 0 -- -- 93
2021-01-11 10:00:00 1.8 0 Calma 8 Este 0 -- -- 100
2021-01-11 09:00:00 -0.6 3 Sudeste 8 Este 0 -- -- 99
2021-01-11 08:00:00 0.1 4 Sur 9 Sur 0 -- -- 98
2021-01-11 07:00:00 0.2 8 Sur 12 Sur 0 -- -- 98
2021-01-11 06:00:00 0.7 3 Sur 5 Sudeste 0 -- -- 94
2021-01-11 05:00:00 1.1 0 Calma 4 Nordeste 0 -- -- 94
2021-01-11 04:00:00 1.5 2 Sur 5 Noroeste 0 -- -- 95
2021-01-11 03:00:00 1.9 2 Sudoeste 9 Sur 0 -- -- 93
2021-01-11 02:00:00 2.3 3 Sudeste 5 Nordeste 0 -- -- 91
2021-01-11 01:00:00 2.8 0 Calma 5 Nordeste 0 -- -- 91
2021-01-11 00:00:00 3 2 Sudeste 8 Nordeste 0 -- -- 90
2021-01-10 23:00:00 3.1 3 Nordeste 8 Nordeste 0 -- -- 89
2021-01-10 22:00:00 3.8 4 Nordeste 5 Nordeste 0 -- -- 84
2021-01-10 21:00:00 3.9 0 Calma 4 Norte 0 -- -- 82
2021-01-10 20:00:00 4.4 3 Norte 5 Norte 0 -- -- 79
2021-01-10 19:00:00 5 0 Calma 14 Sudeste 0 -- -- 78
2021-01-10 18:00:00 5.4 9 Sudeste 20 Sur 0 -- -- 75
2021-01-10 17:00:00 6.1 11 Sudeste 21 Sur 0 -- -- 74
2021-01-10 16:00:00 6.7 11 Sur 20 Sur 0 -- -- 73
2021-01-10 15:00:00 6.4 6 Sur 12 Sudeste 0 -- -- 69
2021-01-10 14:00:00 6.3 6 Sudeste 12 Oeste 0 -- -- 76
2021-01-10 13:00:00 5.1 3 Oeste 9 Oeste 0 -- -- 88
2021-01-10 12:00:00 4.6 5 Nordeste 11 Nordeste 0 -- -- 82
2021-01-10 11:00:00 4.3 6 Nordeste 12 Nordeste 0 -- -- 85
2021-01-10 10:00:00 2.2 5 Nordeste 11 Este 0 -- -- 94
2021-01-10 09:00:00 1.4 7 Nordeste 9 Nordeste 0 -- -- 97
2021-01-10 08:00:00 1.3 4 Este 10 Nordeste 0 -- -- 96
2021-01-10 07:00:00 1 8 Nordeste 12 Sudoeste 0 -- -- 95
2021-01-10 06:00:00 1.6 7 Sur 11 Sur 0 -- -- 93
2021-01-10 05:00:00 1.6 6 Sur 13 Sudeste 0 -- -- 94
2021-01-10 04:00:00 2.2 4 Sudeste 10 Este 0.2 -- -- 92
2021-01-10 03:00:00 2.1 5 Este 9 Este 0 -- -- 94
2021-01-10 02:00:00 2.2 8 Nordeste 11 Sudeste 0 -- -- 96
2021-01-10 01:00:00 2.9 7 Este 12 Norte 0.6 -- -- 95
2021-01-10 00:00:00 2.9 7 Norte 18 Oeste 1.2 -- -- 91
2021-01-09 23:00:00 4.4 3 Sudoeste 5 Sur 0 -- -- 74
2021-01-09 22:00:00 4.6 3 Este 9 Sudeste 0 -- -- 67
2021-01-09 21:00:00 5.3 5 Este 14 Sudeste 0 -- -- 57
2021-01-09 20:00:00 5.6 9 Este 12 Este 0 -- -- 57
2021-01-09 19:00:00 5.3 0 Calma 13 Sudoeste 0 -- -- 53
2021-01-09 18:00:00 7.2 13 Sudoeste 28 Sudoeste 0 -- -- 49
2021-01-09 17:00:00 8.4 19 Sudoeste 36 Sudoeste 0 -- -- 44
2021-01-09 16:00:00 8.7 22 Sudoeste 33 Sudoeste 0 -- -- 52
2021-01-09 15:00:00 8 21 Sudoeste 31 Oeste 0 -- -- 59
2021-01-09 14:00:00 7 18 Oeste 27 Oeste 0 -- -- 68
2021-01-09 13:00:00 6.2 16 Sudoeste 42 Sudoeste 0 -- -- 71
2021-01-09 12:00:00 6 30 Sudoeste 43 Sudoeste 0 -- -- 75
2021-01-09 11:00:00 4.3 28 Sudoeste 45 Sudoeste 0 -- -- 79
2021-01-09 10:00:00 3.9 29 Sudoeste 57 Sudoeste 0 -- -- 84
2021-01-09 09:00:00 4 32 Sudoeste 46 Sudoeste 0.2 -- -- 86
2021-01-09 08:00:00 5.1 26 Sudoeste 37 Sudoeste 0 -- -- 90
2021-01-09 07:00:00 5.3 22 Sudoeste 35 Sudoeste 0 -- -- 91
2021-01-09 06:00:00 6.2 18 Sudoeste 36 Sudoeste 0 -- -- 93
2021-01-09 05:00:00 6.6 23 Oeste 34 Sudoeste 0 -- -- 95
2021-01-09 04:00:00 7.1 26 Sudoeste 38 Oeste 0 -- -- 95
2021-01-09 03:00:00 7.4 12 Oeste 21 Oeste 0 -- -- 98
2021-01-09 02:00:00 8.2 14 Oeste 30 Sudoeste 0 -- -- 97
2021-01-09 01:00:00 9.6 18 Sudoeste 38 Sur 0.8 -- -- 98
2021-01-09 00:00:00 10 24 Sur 44 Sudeste 0 -- -- 93
2021-01-08 23:00:00 9.6 15 Sur 24 Sur 1.8 -- -- 97
2021-01-08 22:00:00 10 12 Sudoeste 23 Sudoeste 1.8 -- -- 96
2021-01-08 21:00:00 11.5 14 Sudeste 29 Sudeste 0 -- -- 83
2021-01-08 20:00:00 11 16 Sudeste 46 Sudeste 0.4 -- -- 85
2021-01-08 19:00:00 11.6 24 Sur 44 Sur 0 -- -- 80
2021-01-08 18:00:00 11.8 10 Sudeste 21 Sudeste 0 -- -- 82
2021-01-08 17:00:00 11.4 15 Sudeste 34 Sudeste 0 -- -- 83
2021-01-08 16:00:00 11.9 23 Sudeste 39 Sur 0.2 -- -- 80
2021-01-08 15:00:00 11.1 18 Sudeste 33 Sudeste 0 -- -- 85
2021-01-08 14:00:00 9 6 Oeste 10 Oeste 0 -- -- 95
2021-01-08 13:00:00 8.6 3 Noroeste 11 Nordeste 0 -- -- 94
2021-01-08 12:00:00 7.7 7 Nordeste 16 Nordeste 0 -- -- 96
2021-01-08 11:00:00 6.8 7 Nordeste 14 Nordeste 0 -- -- 98
2021-01-08 10:00:00 6.2 6 Nordeste 13 Nordeste 0.2 -- -- 99
2021-01-08 09:00:00 5.8 6 Este 14 Nordeste 0.2 -- -- 99
2021-01-08 08:00:00 5.6 10 Nordeste 20 Nordeste 1 -- -- 99
2021-01-08 07:00:00 5.7 10 Nordeste 17 Este 1.6 -- -- 99
2021-01-08 06:00:00 6 10 Nordeste 20 Nordeste 0.4 -- -- 99
2021-01-08 05:00:00 5.9 5 Este 12 Nordeste 0.2 -- -- 99
2021-01-08 04:00:00 5.9 5 Este 12 Este 0.4 -- -- 100
2021-01-08 03:00:00 5.7 3 Este 6 Este 0.8 -- -- 100
2021-01-08 02:00:00 5.7 4 Norte 10 Nordeste 1 -- -- 100
2021-01-08 01:00:00 5.7 3 Este 6 Nordeste 1.4 -- -- 99
2021-01-08 00:00:00 5.7 0 Calma 10 Nordeste 2.4 -- -- 99
2021-01-07 23:00:00 5.7 9 Nordeste 13 Nordeste 3.6 -- -- 99
2021-01-07 22:00:00 5.8 8 Nordeste 15 Nordeste 2.6 -- -- 99
2021-01-07 21:00:00 6 5 Nordeste 12 Nordeste 0.8 -- -- 99
2021-01-07 20:00:00 6.2 5 Nordeste 8 Nordeste 0.4 -- -- 99
2021-01-07 19:00:00 6.4 4 Nordeste 7 Nordeste 0 -- -- 99
2021-01-07 18:00:00 6.4 0 Calma 8 Nordeste 0.2 -- -- 99
2021-01-07 17:00:00 6.4 3 Nordeste 9 Nordeste 0 -- -- 99
2021-01-07 16:00:00 6.2 4 Nordeste 9 Nordeste 0.4 -- -- 99
2021-01-07 15:00:00 6 5 Nordeste 10 Nordeste 0.4 -- -- 99
2021-01-07 14:00:00 5.8 4 Norte 9 Nordeste 0 -- -- 99
2021-01-07 13:00:00 5.6 4 Nordeste 8 Nordeste 0.4 -- -- 99
2021-01-07 12:00:00 5.3 3 Norte 5 Norte 0.6 -- -- 99
2021-01-07 11:00:00 5 3 Nordeste 9 Nordeste 0.2 -- -- 99
2021-01-07 10:00:00 4.6 6 Nordeste 13 Norte 1 -- -- 99
2021-01-07 09:00:00 4.5 6 Norte 9 Norte 0.8 -- -- 98
2021-01-07 08:00:00 4.5 3 Este 13 Nordeste 1.4 -- -- 98
2021-01-07 07:00:00 4.5 6 Nordeste 15 Nordeste 1 -- -- 98
2021-01-07 06:00:00 4.5 8 Nordeste 12 Nordeste 1.2 -- -- 98
2021-01-07 05:00:00 4.8 4 Nordeste 8 Nordeste 0.4 -- -- 96
2021-01-07 04:00:00 4.9 2 Norte 6 Nordeste 0.6 -- -- 95
2021-01-07 03:00:00 4.9 3 Nordeste 9 Nordeste 1 -- -- 95
2021-01-07 02:00:00 4.9 6 Nordeste 24 Nordeste 0.8 -- -- 95
2021-01-07 01:00:00 5.2 12 Nordeste 22 Nordeste 1.4 -- -- 94
2021-01-07 00:00:00 6 11 Nordeste 21 Nordeste 1 -- -- 92
2021-01-06 23:00:00 6.6 6 Nordeste 11 Nordeste 1.4 -- -- 92
2021-01-06 22:00:00 6.8 3 Nordeste 8 Noroeste 0.8 -- -- 91
2021-01-06 21:00:00 7.4 4 Oeste 8 Oeste 0.4 -- -- 86
2021-01-06 20:00:00 8.3 0 Calma 8 Sur 0 -- -- 77
2021-01-06 19:00:00 8.8 7 Sudeste 16 Sur 0 -- -- 72
2021-01-06 18:00:00 9.1 8 Sur 13 Sur 0 -- -- 70
2021-01-06 17:00:00 9.5 12 Sur 23 Sur 0 -- -- 66
2021-01-06 16:00:00 10.7 12 Sur 23 Sur 0 -- -- 60
2021-01-06 15:00:00 11.4 15 Sur 26 Sur 0 -- -- 53
2021-01-06 14:00:00 10.7 13 Sur 23 Sur 0 -- -- 55
2021-01-06 13:00:00 10.5 14 Sur 24 Sur 0 -- -- 60
2021-01-06 12:00:00 10.2 10 Sudeste 18 Sudeste 0 -- -- 61
2021-01-06 11:00:00 7 6 Nordeste 11 Nordeste 0 -- -- 75
2021-01-06 10:00:00 5.7 4 Este 12 Este 0 -- -- 82
2021-01-06 09:00:00 5.1 4 Este 10 Nordeste 0 -- -- 83
2021-01-06 08:00:00 5.1 6 Este 9 Este 0 -- -- 81
2021-01-06 07:00:00 5.2 4 Sudeste 7 Nordeste 0 -- -- 83
2021-01-06 06:00:00 4.9 4 Nordeste 9 Este 0 -- -- 84
2021-01-06 05:00:00 4.7 4 Nordeste 8 Este 0 -- -- 85
2021-01-06 04:00:00 4.6 6 Nordeste 9 Nordeste 0 -- -- 83
2021-01-06 03:00:00 4.8 4 Este 7 Nordeste 0 -- -- 82
2021-01-06 02:00:00 4.8 5 Nordeste 6 Nordeste 0 -- -- 84
2021-01-06 01:00:00 5 4 Nordeste 5 Este 0 -- -- 80
2021-01-06 00:00:00 5.3 3 Este 5 Nordeste 0 -- -- 78
2021-01-05 23:00:00 5.3 2 Norte 4 Norte 0 -- -- 79
2021-01-05 22:00:00 5.7 3 Norte 5 Noroeste 0 -- -- 79
2021-01-05 21:00:00 6.3 0 Calma 5 Sur 0 -- -- 77
2021-01-05 20:00:00 6.7 3 Sur 7 Norte 0 -- -- 77
2021-01-05 19:00:00 7.3 2 Norte 8 Norte 0 -- -- 71
2021-01-05 18:00:00 8.2 4 Noroeste 9 Noroeste 0 -- -- 67
2021-01-05 17:00:00 9.5 3 Noroeste 8 Oeste 0 -- -- 55
2021-01-05 16:00:00 9.8 5 Noroeste 9 Noroeste 0 -- -- 54
2021-01-05 15:00:00 10.1 3 Norte 10 Norte 0 -- -- 53
2021-01-05 14:00:00 10.7 4 Sudoeste 10 Noroeste 0 -- -- 53
2021-01-05 13:00:00 9.6 3 Norte 8 Nordeste 0 -- -- 58
2021-01-05 12:00:00 7.2 5 Nordeste 12 Nordeste 0 -- -- 69
2021-01-05 11:00:00 4.6 9 Nordeste 13 Nordeste 0 -- -- 82
2021-01-05 10:00:00 4.2 4 Este 9 Este 0 -- -- 84
2021-01-05 09:00:00 3.1 4 Este 9 Nordeste 0 -- -- 89
2021-01-05 08:00:00 3 6 Nordeste 8 Nordeste 0 -- -- 90
2021-01-05 07:00:00 2.7 8 Sur 15 Sur 0 -- -- 91
2021-01-05 06:00:00 3.3 8 Sur 14 Sur 0 -- -- 88
2021-01-05 05:00:00 3.5 4 Nordeste 6 Este 0 -- -- 86
2021-01-05 04:00:00 3.6 0 Calma 10 Nordeste 0 -- -- 85
2021-01-05 03:00:00 3.8 3 Este 9 Sudeste 0 -- -- 85
2021-01-05 02:00:00 4.1 3 Sudeste 9 Este 0 -- -- 83
2021-01-05 01:00:00 4.1 6 Nordeste 9 Nordeste 0 -- -- 83
2021-01-05 00:00:00 4.8 4 Este 6 Este 0 -- -- 76
2021-01-04 23:00:00 4.6 4 Este 6 Sur 0 -- -- 78
2021-01-04 22:00:00 4.8 4 Sur 6 Sur 0 -- -- 78
2021-01-04 21:00:00 4.4 4 Sudoeste 9 Sudoeste 0 -- -- 77
2021-01-04 20:00:00 4.9 6 Sudoeste 9 Sudoeste 0 -- -- 74
2021-01-04 19:00:00 5.9 6 Sudoeste 13 Sur 0 -- -- 71
2021-01-04 18:00:00 7.8 7 Sudoeste 14 Sudoeste 0 -- -- 63
2021-01-04 17:00:00 8.4 8 Noroeste 18 Noroeste 0 -- -- 61
2021-01-04 16:00:00 8 6 Noroeste 19 Oeste 0 -- -- 63
2021-01-04 15:00:00 8.3 8 Oeste 20 Sudoeste 0 -- -- 63
2021-01-04 14:00:00 7.6 10 Noroeste 16 Noroeste 0 -- -- 65
2021-01-04 13:00:00 7.1 5 Noroeste 11 Noroeste 0 -- -- 64
2021-01-04 12:00:00 6.2 2 Sudeste 6 Nordeste 0 -- -- 71
2021-01-04 11:00:00 2.4 4 Nordeste 9 Nordeste 0 -- -- 82
2021-01-04 10:00:00 0.5 4 Este 8 Nordeste 0 -- -- 88
2021-01-04 09:00:00 -1.4 6 Este 13 Nordeste 0 -- -- 92
2021-01-04 08:00:00 -1.4 8 Nordeste 12 Nordeste 0 -- -- 92
2021-01-04 07:00:00 -1 5 Este 12 Nordeste 0 -- -- 90
2021-01-04 06:00:00 -1 10 Nordeste 13 Nordeste 0 -- -- 92
2021-01-04 05:00:00 -0.6 8 Nordeste 10 Nordeste 0 -- -- 91
2021-01-04 04:00:00 0 4 Este 8 Nordeste 0 -- -- 86
2021-01-04 03:00:00 0.4 4 Este 10 Este 0 -- -- 82
2021-01-04 02:00:00 1.1 4 Este 9 Este 0 -- -- 76
2021-01-04 01:00:00 1.9 6 Sur 10 Sur 0 -- -- 73
2021-01-04 00:00:00 2.2 6 Sur 9 Sur 0 -- -- 70
2021-01-03 23:00:00 2.2 2 Este 8 Este 0 -- -- 70
2021-01-03 22:00:00 3.4 4 Este 6 Este 0 -- -- 64
2021-01-03 21:00:00 3.3 0 Calma 7 Sudoeste 0 -- -- 63
2021-01-03 20:00:00 3.8 5 Sudoeste 8 Sudoeste 0 -- -- 63
2021-01-03 19:00:00 5.2 2 Oeste 6 Oeste 0 -- -- 57
2021-01-03 18:00:00 7.4 4 Noroeste 14 Oeste 0 -- -- 50
2021-01-03 17:00:00 8.6 9 Oeste 18 Oeste 0 -- -- 44
2021-01-03 16:00:00 8.1 9 Noroeste 19 Noroeste 0 -- -- 44
2021-01-03 15:00:00 7.8 10 Noroeste 18 Oeste 0 -- -- 42
2021-01-03 14:00:00 7.4 6 Noroeste 13 Noroeste 0 -- -- 47
2021-01-03 13:00:00 6.4 5 Noroeste 11 Noroeste 0 -- -- 60
2021-01-03 12:00:00 5 0 Calma 4 Noroeste 0 -- -- 65
2021-01-03 11:00:00 2.1 3 Nordeste 5 Nordeste 0 -- -- 84
2021-01-03 10:00:00 0.4 2 Este 6 Nordeste 0 -- -- 89
2021-01-03 09:00:00 -0.8 6 Nordeste 7 Nordeste 0 -- -- 92
2021-01-03 08:00:00 -1.1 4 Este 9 Nordeste 0 -- -- 94
2021-01-03 07:00:00 -0.8 6 Nordeste 8 Nordeste 0 -- -- 94
2021-01-03 06:00:00 -0.8 4 Este 11 Este 0 -- -- 91
2021-01-03 05:00:00 -0.7 0 Calma 5 Nordeste 0 -- -- 88
2021-01-03 04:00:00 0 3 Sudoeste 6 Sur 0 -- -- 88
2021-01-03 03:00:00 0.3 6 Sur 9 Sur 0 -- -- 88
2021-01-03 02:00:00 0.4 4 Sur 8 Sur 0 -- -- 88
2021-01-03 01:00:00 1.1 4 Sudoeste 5 Sudoeste 0 -- -- 86
2021-01-03 00:00:00 1.5 0 Calma 5 Oeste 0 -- -- 86
2021-01-02 23:00:00 2.1 4 Oeste 8 Oeste 0 -- -- 84
2021-01-02 22:00:00 2.8 6 Oeste 15 Noroeste 0 -- -- 82
2021-01-02 21:00:00 3.8 3 Oeste 9 Oeste 0 -- -- 77
2021-01-02 20:00:00 4.3 3 Norte -- -- 0 -- -- 74
2021-01-02 19:00:00 4.2 0 Calma 15 Oeste 0 -- -- 74
2021-01-02 18:00:00 5.9 8 Noroeste 23 Noroeste 0 -- -- 65
2021-01-02 17:00:00 6.7 13 Noroeste 24 Noroeste 0 -- -- 58
2021-01-02 16:00:00 6.8 14 Noroeste 24 Noroeste 0 -- -- 62
2021-01-02 15:00:00 6.7 9 Noroeste 19 Noroeste 0 -- -- 63
2021-01-02 14:00:00 5.4 6 Noroeste 20 Norte 0 -- -- 75